createdAt,value
2017-08-31T00:01:16.720Z,99.90
2017-08-31T00:03:44.174Z,99.90
2017-08-31T00:06:11.638Z,99.90
2017-08-31T00:08:39.122Z,99.90
2017-08-31T00:11:06.587Z,99.90
2017-08-31T00:13:34.072Z,99.90
2017-08-31T00:16:01.530Z,99.90
2017-08-31T00:18:29.018Z,99.90
2017-08-31T00:20:56.501Z,99.90
2017-08-31T00:23:23.935Z,99.90
2017-08-31T00:25:51.411Z,99.90
2017-08-31T00:28:19.833Z,99.90
2017-08-31T00:30:47.295Z,99.90
2017-08-31T00:33:14.783Z,99.90
2017-08-31T00:35:42.247Z,99.90
2017-08-31T00:38:09.706Z,99.90
2017-08-31T00:40:37.182Z,99.90
2017-08-31T00:43:04.673Z,99.90
2017-08-31T00:45:32.166Z,99.90
2017-08-31T00:47:59.630Z,99.90
2017-08-31T00:50:27.086Z,99.90
2017-08-31T00:52:54.562Z,99.90
2017-08-31T00:55:22.058Z,99.90
2017-08-31T00:57:49.519Z,99.90
2017-08-31T01:00:16.994Z,99.90
2017-08-31T01:02:44.455Z,99.90
2017-08-31T01:05:11.941Z,99.90
2017-08-31T01:07:39.395Z,99.90
2017-08-31T01:10:06.855Z,99.90
2017-08-31T01:12:34.342Z,99.90
2017-08-31T01:15:01.811Z,99.90
2017-08-31T01:17:29.286Z,99.90
2017-08-31T01:19:56.759Z,99.90
2017-08-31T01:22:24.223Z,99.90
2017-08-31T01:24:51.679Z,99.90
2017-08-31T01:27:19.156Z,99.90
2017-08-31T01:29:46.615Z,99.90
2017-08-31T01:32:14.094Z,99.90
2017-08-31T01:34:41.571Z,99.90
2017-08-31T01:37:09.047Z,99.90
2017-08-31T01:39:36.511Z,99.90
2017-08-31T01:42:03.970Z,99.90
2017-08-31T01:44:31.454Z,99.90
2017-08-31T01:46:58.907Z,99.90
2017-08-31T01:49:26.363Z,99.90
2017-08-31T01:51:53.836Z,99.90
2017-08-31T01:54:21.306Z,99.90
2017-08-31T01:56:48.750Z,99.90
2017-08-31T01:59:16.231Z,99.90
2017-08-31T02:01:43.684Z,99.90
2017-08-31T02:04:11.157Z,99.90
2017-08-31T02:06:38.611Z,99.90
2017-08-31T02:09:06.087Z,99.90
2017-08-31T02:11:33.539Z,99.90
2017-08-31T02:14:01.006Z,99.90
2017-08-31T02:16:28.462Z,99.90
2017-08-31T02:18:55.919Z,99.90
2017-08-31T02:21:23.395Z,99.90
2017-08-31T02:23:51.401Z,99.90
2017-08-31T02:26:18.867Z,99.90
2017-08-31T02:28:46.320Z,99.90
2017-08-31T02:31:13.793Z,99.90
2017-08-31T02:33:41.261Z,99.90
2017-08-31T02:36:08.714Z,99.90
2017-08-31T02:38:36.184Z,99.90
2017-08-31T02:41:03.643Z,99.90
2017-08-31T02:43:31.123Z,99.90
2017-08-31T02:45:58.571Z,99.90
2017-08-31T02:48:26.031Z,99.90
2017-08-31T02:50:53.500Z,99.90
2017-08-31T02:53:20.978Z,99.90
2017-08-31T02:55:48.537Z,99.90
2017-08-31T02:58:15.997Z,99.90
2017-08-31T03:00:43.493Z,99.90
2017-08-31T03:03:10.944Z,99.90
2017-08-31T03:05:38.419Z,99.90
2017-08-31T03:08:05.867Z,99.90
2017-08-31T03:10:33.343Z,99.90
2017-08-31T03:13:01.594Z,99.90
2017-08-31T03:15:29.054Z,99.90
2017-08-31T03:17:56.516Z,99.90
2017-08-31T03:20:23.972Z,99.90
2017-08-31T03:22:51.442Z,99.90
2017-08-31T03:25:19.679Z,99.90
2017-08-31T03:27:47.131Z,99.90
2017-08-31T03:30:14.607Z,99.90
2017-08-31T03:32:42.063Z,99.90
2017-08-31T03:35:09.542Z,99.90
2017-08-31T03:37:36.999Z,99.90
2017-08-31T03:40:05.223Z,99.90
2017-08-31T03:42:32.690Z,99.90
2017-08-31T03:45:00.155Z,99.90
2017-08-31T03:47:27.627Z,99.90
2017-08-31T03:49:55.095Z,99.90
2017-08-31T03:52:22.559Z,99.90
2017-08-31T03:54:50.024Z,99.90
2017-08-31T03:57:17.495Z,99.90
2017-08-31T03:59:44.960Z,99.90
2017-08-31T04:02:12.438Z,99.90
2017-08-31T04:04:39.898Z,99.90
2017-08-31T04:07:07.368Z,99.90
2017-08-31T04:09:34.819Z,99.90
2017-08-31T04:12:02.292Z,99.90
2017-08-31T04:14:29.743Z,99.90
2017-08-31T04:16:57.230Z,99.90
2017-08-31T04:19:24.704Z,99.90
2017-08-31T04:21:52.167Z,99.90
2017-08-31T04:24:19.647Z,99.90
2017-08-31T04:26:48.218Z,99.90
2017-08-31T04:29:15.679Z,99.90
2017-08-31T04:31:43.155Z,99.90
2017-08-31T04:34:10.624Z,99.90
2017-08-31T04:36:38.106Z,99.90
2017-08-31T04:39:05.559Z,99.90
2017-08-31T04:41:33.044Z,99.90
2017-08-31T04:44:00.602Z,99.90
2017-08-31T04:46:28.058Z,99.90
2017-08-31T04:48:55.519Z,99.90
2017-08-31T04:51:22.998Z,99.90
2017-08-31T04:53:50.450Z,99.90
2017-08-31T04:56:17.920Z,99.90
2017-08-31T04:58:45.386Z,99.90
2017-08-31T05:01:12.859Z,99.90
2017-08-31T05:03:41.106Z,99.90
2017-08-31T05:06:08.575Z,99.90
2017-08-31T05:08:36.043Z,99.90
2017-08-31T05:11:03.535Z,99.90
2017-08-31T05:13:30.984Z,99.90
2017-08-31T05:15:58.435Z,99.90
2017-08-31T05:18:25.891Z,99.90
2017-08-31T05:20:53.360Z,99.90
2017-08-31T05:23:20.926Z,99.90
2017-08-31T05:25:48.392Z,99.90
2017-08-31T05:28:15.846Z,99.90
2017-08-31T05:30:43.316Z,99.90
2017-08-31T05:33:10.779Z,99.90
2017-08-31T05:35:38.251Z,99.90
2017-08-31T05:38:05.715Z,99.90
2017-08-31T05:40:33.183Z,99.90
2017-08-31T05:43:00.678Z,99.90
2017-08-31T05:45:28.138Z,99.90
2017-08-31T05:47:55.605Z,99.90
2017-08-31T05:50:23.092Z,99.90
2017-08-31T05:52:50.572Z,99.90
2017-08-31T05:55:18.051Z,99.90
2017-08-31T05:57:45.527Z,99.90
2017-08-31T06:00:12.983Z,99.90
2017-08-31T06:02:40.463Z,99.90
2017-08-31T06:05:07.987Z,99.90
2017-08-31T06:07:35.447Z,99.90
2017-08-31T06:10:02.924Z,99.90
2017-08-31T06:12:30.398Z,99.90
2017-08-31T06:14:57.863Z,99.90
2017-08-31T06:17:25.371Z,99.90
2017-08-31T06:19:52.832Z,99.90
2017-08-31T06:22:20.295Z,99.90
2017-08-31T06:24:47.795Z,99.90
2017-08-31T06:27:15.267Z,99.90
2017-08-31T06:29:42.738Z,99.90
2017-08-31T06:32:10.214Z,99.90
2017-08-31T06:34:37.679Z,99.90
2017-08-31T06:37:05.150Z,99.90
2017-08-31T06:39:32.615Z,99.90
2017-08-31T06:42:00.111Z,99.90
2017-08-31T06:44:27.594Z,99.90
2017-08-31T06:46:55.045Z,99.90
2017-08-31T06:49:22.519Z,99.90
2017-08-31T06:51:49.987Z,99.90
2017-08-31T06:54:17.462Z,99.90
2017-08-31T06:56:44.926Z,99.90
2017-08-31T06:59:12.395Z,99.90
2017-08-31T07:01:39.850Z,99.90
2017-08-31T07:04:07.349Z,99.90
2017-08-31T07:06:34.802Z,99.90
2017-08-31T07:09:02.288Z,99.90
2017-08-31T07:11:29.759Z,99.90
2017-08-31T07:13:57.223Z,99.90
2017-08-31T07:16:24.706Z,99.90
2017-08-31T07:18:52.923Z,99.90
2017-08-31T07:21:20.383Z,99.90
2017-08-31T07:23:47.871Z,99.90
2017-08-31T07:26:15.331Z,99.90
2017-08-31T07:28:42.791Z,99.90
2017-08-31T07:31:10.269Z,99.90
2017-08-31T07:33:37.740Z,99.90
2017-08-31T07:36:05.215Z,99.90
2017-08-31T07:38:32.679Z,99.90
2017-08-31T07:41:00.213Z,99.90
2017-08-31T07:43:27.770Z,99.90
2017-08-31T07:45:55.235Z,99.90
2017-08-31T07:48:22.716Z,99.90
2017-08-31T07:50:50.243Z,99.90
2017-08-31T07:53:17.715Z,99.90
2017-08-31T07:55:45.190Z,99.90
2017-08-31T07:58:12.660Z,99.90
2017-08-31T08:00:40.123Z,99.90
2017-08-31T08:03:07.586Z,99.90
2017-08-31T08:05:35.060Z,99.90
2017-08-31T08:08:02.541Z,99.90
2017-08-31T08:10:30.007Z,99.90
2017-08-31T08:12:57.478Z,99.90
2017-08-31T08:15:24.935Z,99.90
2017-08-31T08:17:52.433Z,99.90
2017-08-31T08:20:19.879Z,99.90
2017-08-31T08:22:47.335Z,99.90
2017-08-31T08:25:14.808Z,98.40
2017-08-31T08:27:42.261Z,97.90
2017-08-31T08:30:09.728Z,97.40
2017-08-31T08:32:37.203Z,97.70
2017-08-31T08:35:04.680Z,97.70
2017-08-31T08:37:32.123Z,97.00
2017-08-31T08:39:59.603Z,97.30
2017-08-31T08:42:27.130Z,95.80
2017-08-31T08:44:54.585Z,94.60
2017-08-31T08:47:22.059Z,94.20
2017-08-31T08:49:49.512Z,94.50
2017-08-31T08:52:16.987Z,93.70
2017-08-31T08:54:44.439Z,94.70
2017-08-31T08:57:11.903Z,95.10
2017-08-31T08:59:39.370Z,95.50
2017-08-31T09:02:06.829Z,95.80
2017-08-31T09:04:34.298Z,95.10
2017-08-31T09:07:01.759Z,95.60
2017-08-31T09:09:29.230Z,94.80
2017-08-31T09:11:56.694Z,95.70
2017-08-31T09:14:24.172Z,96.70
2017-08-31T09:16:51.617Z,96.70
2017-08-31T09:19:19.178Z,97.10
2017-08-31T09:21:46.647Z,97.60
2017-08-31T09:24:14.090Z,98.00
2017-08-31T09:26:41.654Z,98.80
2017-08-31T09:29:09.105Z,97.50
2017-08-31T09:31:36.664Z,96.40
2017-08-31T09:34:04.119Z,95.60
2017-08-31T09:36:31.587Z,95.60
2017-08-31T09:38:59.062Z,96.20
2017-08-31T09:41:26.541Z,96.60
2017-08-31T09:43:54.007Z,96.50
2017-08-31T09:46:22.322Z,96.00
2017-08-31T09:48:49.779Z,96.00
2017-08-31T09:51:17.251Z,96.20
2017-08-31T09:53:44.722Z,96.40
2017-08-31T09:56:12.198Z,97.00
2017-08-31T09:58:39.669Z,97.50
2017-08-31T10:01:07.122Z,97.10
2017-08-31T10:03:35.375Z,94.50
2017-08-31T10:06:02.825Z,94.40
2017-08-31T10:08:30.291Z,94.60
2017-08-31T10:10:57.755Z,94.60
2017-08-31T10:13:25.237Z,93.70
2017-08-31T10:15:52.718Z,94.30
2017-08-31T10:18:20.182Z,93.20
2017-08-31T10:20:47.660Z,92.50
2017-08-31T10:23:15.113Z,91.70
2017-08-31T10:25:42.579Z,90.60
2017-08-31T10:28:10.048Z,90.10
2017-08-31T10:30:37.502Z,90.10
2017-08-31T10:33:04.969Z,88.50
2017-08-31T10:35:32.442Z,83.30
2017-08-31T10:37:59.896Z,83.00
2017-08-31T10:40:27.374Z,81.30
2017-08-31T10:42:54.846Z,79.40
2017-08-31T10:45:22.321Z,77.60
2017-08-31T10:47:49.782Z,78.20
2017-08-31T10:50:17.248Z,81.20
2017-08-31T10:52:44.736Z,81.70
2017-08-31T10:55:12.186Z,80.10
2017-08-31T10:57:39.635Z,78.50
2017-08-31T11:00:07.123Z,76.50
2017-08-31T11:02:34.567Z,77.70
2017-08-31T11:05:02.047Z,78.40
2017-08-31T11:07:29.503Z,77.80
2017-08-31T11:09:56.958Z,77.00
2017-08-31T11:12:24.435Z,75.40
2017-08-31T11:14:51.887Z,74.30
2017-08-31T11:17:19.343Z,73.10
2017-08-31T11:19:46.826Z,71.90
2017-08-31T11:22:14.315Z,66.90
2017-08-31T11:24:41.764Z,68.60
2017-08-31T11:27:09.300Z,68.80
2017-08-31T11:29:36.854Z,70.00
2017-08-31T11:32:04.370Z,73.20
2017-08-31T11:34:31.829Z,74.50
2017-08-31T11:36:59.327Z,79.20
2017-08-31T11:39:26.743Z,80.80
2017-08-31T11:41:54.220Z,82.30
2017-08-31T11:44:21.673Z,81.60
2017-08-31T11:46:49.151Z,83.40
2017-08-31T11:49:16.606Z,81.90
2017-08-31T11:51:44.062Z,78.70
2017-08-31T11:54:11.531Z,76.00
2017-08-31T11:56:38.991Z,76.00
2017-08-31T11:59:06.454Z,78.30
2017-08-31T12:01:34.051Z,77.00
2017-08-31T12:04:01.610Z,76.30
2017-08-31T12:06:29.084Z,76.50
2017-08-31T12:08:56.547Z,75.50
2017-08-31T12:11:24.021Z,76.20
2017-08-31T12:13:52.352Z,74.80
2017-08-31T12:16:19.831Z,69.00
2017-08-31T12:18:47.299Z,69.40
2017-08-31T12:21:14.762Z,68.40
2017-08-31T12:23:42.228Z,71.80
2017-08-31T12:26:09.675Z,72.90
2017-08-31T12:28:37.146Z,74.80
2017-08-31T12:31:04.618Z,75.90
2017-08-31T12:33:32.097Z,74.60
2017-08-31T12:35:59.542Z,72.60
2017-08-31T12:38:27.022Z,67.40
2017-08-31T12:40:54.475Z,64.40
2017-08-31T12:43:21.931Z,62.80
2017-08-31T12:45:49.406Z,62.00
2017-08-31T12:48:16.949Z,62.20
2017-08-31T12:50:44.403Z,65.80
2017-08-31T12:53:11.861Z,63.20
2017-08-31T12:55:39.323Z,62.60
2017-08-31T12:58:06.791Z,63.80
2017-08-31T13:00:34.243Z,67.10
2017-08-31T13:03:01.714Z,65.30
2017-08-31T13:05:29.172Z,65.20
2017-08-31T13:07:56.700Z,64.70
2017-08-31T13:10:24.159Z,66.10
2017-08-31T13:12:51.630Z,66.00
2017-08-31T13:15:19.100Z,65.90
2017-08-31T13:17:46.554Z,67.70
2017-08-31T13:20:14.015Z,69.30
2017-08-31T13:22:41.491Z,71.00
2017-08-31T13:25:08.961Z,69.10
2017-08-31T13:27:37.182Z,66.80
2017-08-31T13:30:04.652Z,66.80
2017-08-31T13:32:32.106Z,63.20
2017-08-31T13:34:59.598Z,61.30
2017-08-31T13:37:27.046Z,60.30
2017-08-31T13:39:54.526Z,59.00
2017-08-31T13:42:21.986Z,57.70
2017-08-31T13:44:49.464Z,59.40
2017-08-31T13:47:16.927Z,61.90
2017-08-31T13:49:44.383Z,61.00
2017-08-31T13:52:11.847Z,61.20
2017-08-31T13:54:39.320Z,62.00
2017-08-31T13:57:06.775Z,61.00
2017-08-31T13:59:34.226Z,58.90
2017-08-31T14:02:01.694Z,59.40
2017-08-31T14:04:29.172Z,58.90
2017-08-31T14:06:56.620Z,58.10
2017-08-31T14:09:24.088Z,58.30
2017-08-31T14:11:51.585Z,57.20
2017-08-31T14:14:19.040Z,58.60
2017-08-31T14:16:46.514Z,59.50
2017-08-31T14:19:13.974Z,59.20
2017-08-31T14:21:41.438Z,60.30
2017-08-31T14:24:08.911Z,57.20
2017-08-31T14:26:36.366Z,58.00
2017-08-31T14:29:03.880Z,57.20
2017-08-31T14:31:31.338Z,59.50
2017-08-31T14:33:58.794Z,58.60
2017-08-31T14:36:26.279Z,58.60
2017-08-31T14:38:53.808Z,59.90
2017-08-31T14:41:21.309Z,60.60
2017-08-31T14:43:48.775Z,59.60
2017-08-31T14:46:16.248Z,56.30
2017-08-31T14:48:43.716Z,56.30
2017-08-31T14:51:11.199Z,57.50
2017-08-31T14:53:38.662Z,55.90
2017-08-31T14:56:06.130Z,57.60
2017-08-31T14:58:33.604Z,57.90
2017-08-31T15:01:01.079Z,58.70
2017-08-31T15:03:29.319Z,67.80
2017-08-31T15:05:56.775Z,67.80
2017-08-31T15:08:24.255Z,70.10
2017-08-31T15:10:51.762Z,70.00
2017-08-31T15:13:19.222Z,70.60
2017-08-31T15:15:46.683Z,71.20
2017-08-31T15:18:14.153Z,72.50
2017-08-31T15:20:41.619Z,71.30
2017-08-31T15:23:09.087Z,71.70
2017-08-31T15:25:36.558Z,72.70
2017-08-31T15:28:04.042Z,72.80
2017-08-31T15:30:31.514Z,73.70
2017-08-31T15:32:58.975Z,72.70
2017-08-31T15:35:26.436Z,72.80
2017-08-31T15:37:53.986Z,72.90
2017-08-31T15:40:21.439Z,72.20
2017-08-31T15:42:48.895Z,73.30
2017-08-31T15:45:16.458Z,73.60
2017-08-31T15:47:43.913Z,72.90
2017-08-31T15:50:11.437Z,73.50
2017-08-31T15:52:38.895Z,75.40
2017-08-31T15:55:07.131Z,74.30
2017-08-31T15:57:34.587Z,74.30
2017-08-31T16:00:02.040Z,73.90
2017-08-31T16:02:29.525Z,73.50
2017-08-31T16:04:56.987Z,73.80
2017-08-31T16:07:25.212Z,74.90
2017-08-31T16:09:52.684Z,74.80
2017-08-31T16:12:20.151Z,74.50
2017-08-31T16:14:47.612Z,74.60
2017-08-31T16:17:15.079Z,75.30
2017-08-31T16:19:42.554Z,75.00
2017-08-31T16:22:10.783Z,73.90
2017-08-31T16:24:38.240Z,73.90
2017-08-31T16:27:05.718Z,73.20
2017-08-31T16:29:33.176Z,73.90
2017-08-31T16:32:00.650Z,74.10
2017-08-31T16:34:28.122Z,74.70
2017-08-31T16:36:56.361Z,75.20
2017-08-31T16:39:23.819Z,75.20
2017-08-31T16:41:51.278Z,74.50
2017-08-31T16:44:18.755Z,74.90
2017-08-31T16:46:46.214Z,74.50
2017-08-31T16:49:13.692Z,75.60
2017-08-31T16:51:41.147Z,75.50
2017-08-31T16:54:08.603Z,75.50
2017-08-31T16:56:36.092Z,75.00
2017-08-31T16:59:03.547Z,74.10
2017-08-31T17:01:31.003Z,73.40
2017-08-31T17:03:58.479Z,72.50
2017-08-31T17:06:25.952Z,71.50
2017-08-31T17:08:53.419Z,71.10
2017-08-31T17:11:20.895Z,71.50
2017-08-31T17:13:48.356Z,70.60
2017-08-31T17:16:16.588Z,72.70
2017-08-31T17:18:44.055Z,71.80
2017-08-31T17:21:11.519Z,74.60
2017-08-31T17:23:39.386Z,73.90
2017-08-31T17:26:06.873Z,75.40
2017-08-31T17:28:34.343Z,75.00
2017-08-31T17:31:01.819Z,74.30
2017-08-31T17:33:29.282Z,76.50
2017-08-31T17:35:56.754Z,78.10
2017-08-31T17:38:24.219Z,78.40
2017-08-31T17:40:51.693Z,79.30
2017-08-31T17:43:19.166Z,79.80
2017-08-31T17:45:46.724Z,80.20
2017-08-31T17:48:14.199Z,80.00
2017-08-31T17:50:41.666Z,79.80
2017-08-31T17:53:09.139Z,79.20
2017-08-31T17:55:36.599Z,79.60
2017-08-31T17:58:04.051Z,80.10
2017-08-31T18:00:31.527Z,85.80
2017-08-31T18:02:58.998Z,87.50
2017-08-31T18:05:26.467Z,86.80
2017-08-31T18:07:53.934Z,86.40
2017-08-31T18:10:21.415Z,87.40
2017-08-31T18:12:48.892Z,88.90
2017-08-31T18:15:16.360Z,88.20
2017-08-31T18:17:44.591Z,88.70
2017-08-31T18:20:12.062Z,88.70
2017-08-31T18:22:39.542Z,91.20
2017-08-31T18:25:07.015Z,91.20
2017-08-31T18:27:34.461Z,91.70
2017-08-31T18:30:01.960Z,92.50
2017-08-31T18:32:29.443Z,92.80
2017-08-31T18:34:56.941Z,93.20
2017-08-31T18:37:25.162Z,93.60
2017-08-31T18:39:52.619Z,93.60
2017-08-31T18:42:20.110Z,93.80
2017-08-31T18:44:47.580Z,93.90
2017-08-31T18:47:15.176Z,94.70
2017-08-31T18:49:42.681Z,92.20
2017-08-31T18:52:10.794Z,93.30
2017-08-31T18:54:38.770Z,93.80
2017-08-31T18:57:06.871Z,94.40
2017-08-31T18:59:34.818Z,93.00
2017-08-31T19:02:02.326Z,92.40
2017-08-31T19:04:29.792Z,92.40
2017-08-31T19:06:57.314Z,92.90
2017-08-31T19:09:24.799Z,93.50
2017-08-31T19:11:52.915Z,94.10
2017-08-31T19:14:20.429Z,94.40
2017-08-31T19:16:48.031Z,94.40
2017-08-31T19:19:15.510Z,94.70
2017-08-31T19:21:42.969Z,95.50
2017-08-31T19:24:10.514Z,95.50
2017-08-31T19:26:38.062Z,95.80
2017-08-31T19:29:05.621Z,95.70
2017-08-31T19:31:33.104Z,95.70
2017-08-31T19:34:00.643Z,96.00
2017-08-31T19:36:28.319Z,96.50
2017-08-31T19:38:56.382Z,96.40
2017-08-31T19:41:23.903Z,96.10
2017-08-31T19:43:51.405Z,96.40
2017-08-31T19:46:18.906Z,96.70
2017-08-31T19:48:46.359Z,96.70
2017-08-31T19:51:13.827Z,96.90
2017-08-31T19:53:41.334Z,97.20
2017-08-31T19:56:08.785Z,97.30
2017-08-31T19:58:36.261Z,97.20
2017-08-31T20:01:03.736Z,97.50
2017-08-31T20:03:31.235Z,97.30
2017-08-31T20:05:58.794Z,97.50
2017-08-31T20:08:26.352Z,97.80
2017-08-31T20:10:53.828Z,98.00
2017-08-31T20:13:21.282Z,98.10
2017-08-31T20:15:48.768Z,98.50
2017-08-31T20:18:16.234Z,98.50
2017-08-31T20:20:43.723Z,98.60
2017-08-31T20:23:11.222Z,98.80
2017-08-31T20:25:38.697Z,98.50
2017-08-31T20:28:06.180Z,98.80
2017-08-31T20:30:34.403Z,99.20
2017-08-31T20:33:01.890Z,99.10
2017-08-31T20:35:29.352Z,99.10
2017-08-31T20:37:56.849Z,98.80
2017-08-31T20:40:24.325Z,99.20
2017-08-31T20:42:51.791Z,99.20
2017-08-31T20:45:19.266Z,99.20
2017-08-31T20:47:46.721Z,99.80
2017-08-31T20:50:14.208Z,99.90
2017-08-31T20:52:41.701Z,99.90
2017-08-31T20:55:09.158Z,99.70
2017-08-31T20:57:36.631Z,99.90
2017-08-31T21:00:04.091Z,99.90
2017-08-31T21:02:31.563Z,99.90
2017-08-31T21:04:59.949Z,99.90
2017-08-31T21:07:27.434Z,99.90
2017-08-31T21:09:54.907Z,99.90
2017-08-31T21:12:22.370Z,99.90
2017-08-31T21:14:49.835Z,99.90
2017-08-31T21:17:17.317Z,99.90
2017-08-31T21:19:44.795Z,99.90
2017-08-31T21:22:12.254Z,99.90
2017-08-31T21:24:39.735Z,99.90
2017-08-31T21:27:07.195Z,99.90
2017-08-31T21:29:34.668Z,99.90
2017-08-31T21:32:02.151Z,99.90
2017-08-31T21:34:29.609Z,99.90
2017-08-31T21:36:57.092Z,99.90
2017-08-31T21:39:24.688Z,99.90
2017-08-31T21:41:52.186Z,99.90
2017-08-31T21:44:19.646Z,99.90
2017-08-31T21:46:47.111Z,99.90
2017-08-31T21:49:14.593Z,99.90
2017-08-31T21:51:42.051Z,99.90
2017-08-31T21:54:09.536Z,99.90
2017-08-31T21:56:37.023Z,99.90
2017-08-31T21:59:04.478Z,99.90
2017-08-31T22:01:31.931Z,99.90
2017-08-31T22:03:59.403Z,99.90
2017-08-31T22:06:26.878Z,99.90
2017-08-31T22:08:54.368Z,99.90
2017-08-31T22:11:21.848Z,99.90
2017-08-31T22:13:49.318Z,99.90
2017-08-31T22:16:16.789Z,99.90
2017-08-31T22:18:44.268Z,99.90
2017-08-31T22:21:12.499Z,99.90
2017-08-31T22:23:39.974Z,99.90
2017-08-31T22:26:07.438Z,99.90
2017-08-31T22:28:34.932Z,99.90
2017-08-31T22:31:02.396Z,99.90
2017-08-31T22:33:29.863Z,99.90
2017-08-31T22:35:57.326Z,99.90
2017-08-31T22:38:24.787Z,99.90
2017-08-31T22:40:52.271Z,99.90
2017-08-31T22:43:19.735Z,99.90
2017-08-31T22:45:47.199Z,99.90
2017-08-31T22:48:14.792Z,99.90
2017-08-31T22:50:42.351Z,99.90
2017-08-31T22:53:09.822Z,99.90
2017-08-31T22:55:37.292Z,99.90
2017-08-31T22:58:15.604Z,99.90
2017-08-31T23:00:43.056Z,99.90
2017-08-31T23:03:10.528Z,99.90
2017-08-31T23:05:38.009Z,99.90
2017-08-31T23:08:05.467Z,99.90
2017-08-31T23:10:32.957Z,99.90
2017-08-31T23:13:00.406Z,99.90
2017-08-31T23:15:27.890Z,99.90
2017-08-31T23:17:55.356Z,99.90
2017-08-31T23:20:22.810Z,99.90
2017-08-31T23:22:50.294Z,99.90
2017-08-31T23:25:17.747Z,99.90
2017-08-31T23:27:45.223Z,99.90
2017-08-31T23:30:12.709Z,99.90
2017-08-31T23:32:40.178Z,99.90
2017-08-31T23:35:07.640Z,99.90
2017-08-31T23:37:35.103Z,99.90
2017-08-31T23:40:02.576Z,99.90
2017-08-31T23:42:30.039Z,99.90
2017-08-31T23:44:57.498Z,99.90
2017-08-31T23:47:24.983Z,99.90
2017-08-31T23:49:52.456Z,99.70
2017-08-31T23:52:20.019Z,99.50
2017-08-31T23:54:47.490Z,99.40
2017-08-31T23:57:14.946Z,99.30
2017-08-31T23:59:42.415Z,99.70
